^^
MeteoGriva-Weather Station Historical Data
Daily Summary for October 21, 2020 Units:  Metric    English   Both
Daily Weekly Monthly Yearly Custom
  High: Low: Average:
Temperature: 20.2 °C 11 °C 14.8 °C
Dew Point: 12.9 °C 8.3 °C 10.4 °C
Humidity: 86.4% 60.8% 75%
Wind Speed: 2.7km/h 0km/h 0.1km/h
Wind Gust: 12.2km/h - -
Wind- - SE
Pressure: 1025.4 hPa 1021.0 hPa -
Precipitation: 0.0 mm    
Historical Graphs
 
 
Tabular Data for October 21, 2020
Time Temperature Dew Point Pressure Wind Wind Speed Wind Gust Humidity Rainfall Rate (Hourly) solar
00:04 11.7 °C 9.1 °C 1025.1 hPa Calm     84.2% 0.0 mm 0 W/m2
00:09 11.7 °C 9.2 °C 1025.1 hPa Calm     84.9% 0.0 mm 0 W/m2
00:14 11.7 °C 9.2 °C 1025.1 hPa Calm     84.7% 0.0 mm 0 W/m2
00:19 11.9 °C 9.3 °C 1025.1 hPa Calm     84.1% 0.0 mm 0 W/m2
00:24 11.9 °C 9.1 °C 1025.1 hPa Calm   4 km/h 82.8% 0.0 mm 0 W/m2
00:29 12 °C 9.1 °C 1025.1 hPa Calm     82.6% 0.0 mm 0 W/m2
00:34 12 °C 9.1 °C 1025.1 hPa Calm     82.4% 0.0 mm 0 W/m2
00:39 12.2 °C 9.3 °C 1025.1 hPa Calm     82.8% 0.0 mm 0 W/m2
00:44 12.2 °C 9.5 °C 1025.1 hPa Calm     83.7% 0.0 mm 0 W/m2
00:49 12.3 °C 9.2 °C 1025.1 hPa Calm     81.6% 0.0 mm 0 W/m2
00:54 12.3 °C 9.3 °C 1025.1 hPa Calm     81.8% 0.0 mm 0 W/m2
00:59 12.4 °C 9.6 °C 1025.1 hPa Calm     82.8% 0.0 mm 0 W/m2
01:04 12.4 °C 9.6 °C 1025.1 hPa Calm     83% 0.0 mm 0 W/m2
01:09 12.4 °C 9.6 °C 1025.1 hPa Calm     83% 0.0 mm 0 W/m2
01:14 12.4 °C 9.6 °C 1025.1 hPa Calm     82.6% 0.0 mm 0 W/m2
01:19 12.5 °C 9.6 °C 1025.1 hPa Calm     82.6% 0.0 mm 0 W/m2
01:24 12.5 °C 9.7 °C 1025.1 hPa Calm     82.9% 0.0 mm 0 W/m2
01:29 12.4 °C 9.6 °C 1025.1 hPa Calm     83% 0.0 mm 0 W/m2
01:34 12.4 °C 9.5 °C 1025.1 hPa Calm     82.6% 0.0 mm 0 W/m2
01:39 12.5 °C 9.5 °C 1025.1 hPa Calm     82.3% 0.0 mm 0 W/m2
01:44 12.5 °C 9.5 °C 1025.1 hPa Calm     82% 0.0 mm 0 W/m2
01:49 12.5 °C 9.5 °C 1025.1 hPa Calm     82% 0.0 mm 0 W/m2
01:54 12.5 °C 9.4 °C 1025.1 hPa Calm     81.3% 0.0 mm 0 W/m2
01:59 12.2 °C 9.3 °C 1025.1 hPa Calm     82.6% 0.0 mm 0 W/m2
02:04 12.1 °C 9 °C 1025.1 hPa Calm     81.4% 0.0 mm 0 W/m2
02:09 12.2 °C 9 °C 1025.1 hPa Calm     81.4% 0.0 mm 0 W/m2
02:14 12.2 °C 9.1 °C 1025.1 hPa Calm     81.3% 0.0 mm 0 W/m2
02:19 12.4 °C 9.2 °C 1025.1 hPa Calm     81% 0.0 mm 0 W/m2
02:24 12.4 °C 9.6 °C 1025.1 hPa Calm     83% 0.0 mm 0 W/m2
02:29 12.3 °C 9.5 °C 1025.4 hPa Calm     83.1% 0.0 mm 0 W/m2
02:34 12.2 °C 9.4 °C 1025.4 hPa Calm     83% 0.0 mm 0 W/m2
02:39 11.9 °C 9.3 °C 1025.4 hPa Calm     83.7% 0.0 mm 0 W/m2
02:44 11.8 °C 9.1 °C 1025.4 hPa Calm     83.3% 0.0 mm 0 W/m2
02:49 11.8 °C 9.2 °C 1025.4 hPa Calm     83.9% 0.0 mm 0 W/m2
02:54 11.7 °C 9.1 °C 1025.4 hPa Calm     83.8% 0.0 mm 0 W/m2
02:59 11.8 °C 9.1 °C 1025.1 hPa Calm     83.5% 0.0 mm 0 W/m2
03:04 11.8 °C 9 °C 1025.1 hPa Calm     83% 0.0 mm 0 W/m2
03:09 11.7 °C 9 °C 1025.4 hPa Calm     83.3% 0.0 mm 0 W/m2
03:14 11.7 °C 9.1 °C 1025.4 hPa Calm     83.9% 0.0 mm 0 W/m2
03:19 11.7 °C 9 °C 1025.1 hPa Calm     83.6% 0.0 mm 0 W/m2
03:24 11.7 °C 9 °C 1025.1 hPa Calm     83.3% 0.0 mm 0 W/m2
03:29 11.7 °C 9.1 °C 1025.1 hPa Calm     84% 0.0 mm 0 W/m2
03:34 11.6 °C 9.1 °C 1025.1 hPa Calm     84.2% 0.0 mm 0 W/m2
03:39 11.5 °C 8.9 °C 1025.1 hPa Calm     84% 0.0 mm 0 W/m2
03:44 11.3 °C 8.7 °C 1025.1 hPa Calm     83.9% 0.0 mm 0 W/m2
03:49 11.4 °C 8.6 °C 1025.1 hPa Calm     83% 0.0 mm 0 W/m2
03:54 11.4 °C 8.6 °C 1025.1 hPa Calm     83% 0.0 mm 0 W/m2
03:59 11.5 °C 8.7 °C 1025.1 hPa Calm     83% 0.0 mm 0 W/m2
04:04 11.6 °C 8.6 °C 1025.1 hPa Calm     82.1% 0.0 mm 0 W/m2
04:09 11.6 °C 8.6 °C 1025.1 hPa Calm     81.6% 0.0 mm 0 W/m2
04:14 11.7 °C 8.6 °C 1025.1 hPa Calm     81.6% 0.0 mm 0 W/m2
04:19 11.7 °C 8.9 °C 1025.1 hPa West 0.1 km/h 4 km/h 83.1% 0.0 mm 0 W/m2
04:24 11.7 °C 8.8 °C 1025.1 hPa Calm     82.2% 0.0 mm 0 W/m2
04:29 11.8 °C 8.7 °C 1024.7 hPa Calm     81.7% 0.0 mm 0 W/m2
04:34 11.8 °C 8.8 °C 1024.7 hPa Calm     81.9% 0.0 mm 0 W/m2
04:39 11.7 °C 8.9 °C 1025.1 hPa Calm     83% 0.0 mm 0 W/m2
04:44 11.6 °C 8.8 °C 1025.1 hPa Calm     83.2% 0.0 mm 0 W/m2
04:49 11.6 °C 8.9 °C 1024.7 hPa Calm     83.6% 0.0 mm 0 W/m2
04:54 11.6 °C 8.8 °C 1024.7 hPa Calm     83% 0.0 mm 0 W/m2
04:59 11.7 °C 8.7 °C 1024.7 hPa Calm     82% 0.0 mm 0 W/m2
05:04 11.7 °C 8.8 °C 1024.7 hPa Calm     82.3% 0.0 mm 0 W/m2
05:09 11.7 °C 8.9 °C 1024.7 hPa Calm     83% 0.0 mm 0 W/m2
05:14 11.7 °C 8.9 °C 1024.7 hPa Calm     83% 0.0 mm 0 W/m2
05:19 11.8 °C 8.8 °C 1024.7 hPa Calm     82.2% 0.0 mm 0 W/m2
05:24 11.8 °C 9 °C 1024.7 hPa Calm     82.9% 0.0 mm 0 W/m2
05:29 11.8 °C 9 °C 1024.7 hPa Calm     82.8% 0.0 mm 0 W/m2
05:34 11.8 °C 8.8 °C 1024.7 hPa Calm     82.3% 0.0 mm 0 W/m2
05:39 11.7 °C 8.9 °C 1024.7 hPa Calm     82.8% 0.0 mm 0 W/m2
05:44 11.6 °C 8.7 °C 1024.7 hPa Calm     82.7% 0.0 mm 0 W/m2
05:49 11.6 °C 8.8 °C 1024.7 hPa Calm     83% 0.0 mm 0 W/m2
05:54 11.6 °C 8.7 °C 1024.4 hPa Calm     82.7% 0.0 mm 0 W/m2
05:59 11.6 °C 8.8 °C 1024.4 hPa Calm     83% 0.0 mm 0 W/m2
06:04 11.6 °C 8.8 °C 1024.7 hPa Calm     82.9% 0.0 mm 0 W/m2
06:09 11.6 °C 8.6 °C 1024.7 hPa Calm     82% 0.0 mm 0 W/m2
06:14 11.6 °C 8.7 °C 1024.7 hPa Calm     82.8% 0.0 mm 0 W/m2
06:19 11.5 °C 9 °C 1024.7 hPa Calm     84.4% 0.0 mm 0 W/m2
06:24 11.2 °C 8.7 °C 1024.7 hPa Calm     84.6% 0.0 mm 0 W/m2
06:29 11.2 °C 8.3 °C 1024.7 hPa Calm     82.6% 0.0 mm 0 W/m2
06:34 11.3 °C 8.6 °C 1024.7 hPa Calm     83.7% 0.0 mm 0 W/m2
06:39 11.3 °C 8.8 °C 1024.7 hPa Calm     84.4% 0.0 mm 0 W/m2
06:44 11.4 °C 8.7 °C 1024.4 hPa Calm     83.7% 0.0 mm 0 W/m2
06:49 11.4 °C 8.8 °C 1024.4 hPa Calm     84% 0.0 mm 0 W/m2
06:54 11.4 °C 8.8 °C 1024.4 hPa Calm     84.1% 0.0 mm 0 W/m2
06:59 11.4 °C 8.9 °C 1024.4 hPa Calm     84.7% 0.0 mm 0 W/m2
07:04 11.3 °C 8.8 °C 1024.4 hPa Calm     84.7% 0.0 mm 0 W/m2
07:09 11.3 °C 8.7 °C 1024.7 hPa Calm     83.7% 0.0 mm 0 W/m2
07:14 11.3 °C 8.7 °C 1024.4 hPa Calm     84% 0.0 mm 0 W/m2
07:19 11.4 °C 8.8 °C 1024.7 hPa Calm     84% 0.0 mm 0 W/m2
07:24 11.4 °C 8.9 °C 1024.4 hPa Calm     84.3% 0.0 mm 0 W/m2
07:29 11.4 °C 8.9 °C 1024.4 hPa Calm     84.4% 0.0 mm 0 W/m2
07:34 11.4 °C 9 °C 1024.4 hPa Calm     84.9% 0.0 mm 0 W/m2
07:39 11.3 °C 9.1 °C 1024.0 hPa Calm     86.2% 0.0 mm 0 W/m2
07:44 11 °C 8.7 °C 1024.4 hPa Calm     86.4% 0.0 mm 0 W/m2
07:49 11 °C 8.7 °C 1024.7 hPa Calm     86% 0.0 mm 0 W/m2
07:54 11 °C 8.6 °C 1024.7 hPa Calm     85% 0.0 mm 4 W/m2
07:59 11 °C 8.6 °C 1024.7 hPa Calm     84.8% 0.0 mm 8 W/m2
08:04 11.1 °C 8.7 °C 1024.7 hPa Calm     85.1% 0.0 mm 14 W/m2
08:09 11.1 °C 8.5 °C 1024.7 hPa Calm     83.7% 0.0 mm 20 W/m2
08:14 11.3 °C 8.3 °C 1024.7 hPa Calm     82.1% 0.0 mm 26 W/m2
08:19 11.6 °C 8.5 °C 1024.7 hPa Calm     81.6% 0.0 mm 32 W/m2
08:24 12.5 °C 9.2 °C 1024.7 hPa Calm     80.3% 0.0 mm 38 W/m2
08:29 12.6 °C 8.9 °C 1024.7 hPa Calm     78.3% 0.0 mm 43 W/m2
08:34 12.7 °C 8.9 °C 1024.7 hPa Calm     77.1% 0.0 mm 48 W/m2
08:39 13.1 °C 8.5 °C 1025.1 hPa Calm     73.4% 0.0 mm 53 W/m2
08:44 15 °C 10 °C 1025.1 hPa Calm     72.2% 0.0 mm 59 W/m2
08:49 15.1 °C 10.1 °C 1025.1 hPa Calm     71.9% 0.0 mm 63 W/m2
08:54 15.3 °C 9.9 °C 1025.1 hPa Calm     70% 0.0 mm 67 W/m2
08:59 15.5 °C 10.2 °C 1025.4 hPa Calm     70.7% 0.0 mm 85 W/m2
09:04 16.4 °C 10.8 °C 1025.1 hPa Calm     69.4% 0.0 mm 102 W/m2
09:09 16.4 °C 11.1 °C 1025.4 hPa Calm     71% 0.0 mm 81 W/m2
09:14 16.3 °C 11.2 °C 1025.1 hPa Calm     71.7% 0.0 mm 80 W/m2
09:19 16.3 °C 10.9 °C 1025.1 hPa Calm     70.4% 0.0 mm 82 W/m2
09:24 16.7 °C 10.9 °C 1025.1 hPa Calm     68.8% 0.0 mm 83 W/m2
09:29 16.7 °C 10.8 °C 1025.1 hPa Calm     67.9% 0.0 mm 85 W/m2
09:34 16.8 °C 10.8 °C 1025.1 hPa Calm     67.7% 0.0 mm 86 W/m2
09:39 16.9 °C 10.8 °C 1025.1 hPa Calm     67.3% 0.0 mm 88 W/m2
09:44 16.2 °C 10.6 °C 1025.1 hPa ENE 0.1 km/h 7.9 km/h 69.7% 0.0 mm 88 W/m2
09:49 16.1 °C 10.8 °C 1025.1 hPa Calm     70.9% 0.0 mm 89 W/m2
09:54 16.1 °C 10.8 °C 1025.1 hPa Calm   4 km/h 70.8% 0.0 mm 90 W/m2
09:59 16.1 °C 10.7 °C 1025.4 hPa Calm   4 km/h 70.7% 0.0 mm 91 W/m2
10:04 16.7 °C 11.5 °C 1025.4 hPa ESE 0.3 km/h 4 km/h 71.4% 0.0 mm 92 W/m2
10:09 16.8 °C 11.5 °C 1025.4 hPa Calm   4 km/h 71.2% 0.0 mm 94 W/m2
10:14 16.7 °C 11.6 °C 1025.4 hPa Calm     72% 0.0 mm 95 W/m2
10:19 16.6 °C 11.4 °C 1025.4 hPa Calm     71.6% 0.0 mm 98 W/m2
10:24 15.6 °C 10.7 °C 1025.4 hPa Calm     72.8% 0.0 mm 101 W/m2
10:29 15.5 °C 10.1 °C 1025.4 hPa Calm     69.9% 0.0 mm 104 W/m2
10:34 15.8 °C 10 °C 1025.4 hPa Calm     68.6% 0.0 mm 108 W/m2
10:39 16 °C 10.9 °C 1025.4 hPa East 0.2 km/h 7.9 km/h 71.6% 0.0 mm 111 W/m2
10:44 15.8 °C 10.9 °C 1025.4 hPa NE 0.2 km/h 4 km/h 72.6% 0.0 mm 114 W/m2
10:49 15.7 °C 10.8 °C 1025.1 hPa NE 0.2 km/h 7.9 km/h 72.6% 0.0 mm 119 W/m2
10:54 15.7 °C 11 °C 1025.1 hPa Calm     73.4% 0.0 mm 123 W/m2
10:59 15.7 °C 10.9 °C 1025.1 hPa Calm     73.1% 0.0 mm 129 W/m2
11:04 16.2 °C 11.2 °C 1025.4 hPa Calm     72% 0.0 mm 134 W/m2
11:09 16.3 °C 11.3 °C 1025.1 hPa Calm     72.3% 0.0 mm 140 W/m2
11:14 16.5 °C 11 °C 1025.1 hPa ESE 0.2 km/h 7.9 km/h 70.2% 0.0 mm 146 W/m2
11:19 16.7 °C 11.1 °C 1025.1 hPa SE 0.2 km/h 4 km/h 69.6% 0.0 mm 152 W/m2
11:24 17.2 °C 11.7 °C 1025.1 hPa Calm   4 km/h 70.2% 0.0 mm 158 W/m2
11:29 17.3 °C 11.8 °C 1025.1 hPa Calm   4 km/h 69.7% 0.0 mm 165 W/m2
11:34 17.4 °C 11.9 °C 1025.1 hPa SSW 0.2 km/h 4 km/h 69.8% 0.0 mm 171 W/m2
11:39 17.5 °C 12 °C 1025.1 hPa SSE 0.8 km/h 4 km/h 70% 0.0 mm 177 W/m2
11:44 17.3 °C 11.9 °C 1025.1 hPa SSE 1.2 km/h 7.9 km/h 70.7% 0.0 mm 184 W/m2
11:49 17.1 °C 11.8 °C 1025.1 hPa ESE 0.6 km/h 7.9 km/h 71.1% 0.0 mm 192 W/m2
11:54 17.1 °C 11.6 °C 1025.1 hPa SE 0.5 km/h 7.9 km/h 70.1% 0.0 mm 197 W/m2
11:59 17 °C 11.7 °C 1025.1 hPa Calm   4 km/h 71% 0.0 mm 207 W/m2
12:04 17.3 °C 11.8 °C 1025.1 hPa NE 0.4 km/h 7.9 km/h 70.2% 0.0 mm 213 W/m2
12:09 17.3 °C 12.1 °C 1025.1 hPa NNE 0.4 km/h 7.9 km/h 71.1% 0.0 mm 221 W/m2
12:14 17.2 °C 11.8 °C 1025.1 hPa Calm     70.2% 0.0 mm 233 W/m2
12:19 17.3 °C 11.3 °C 1024.7 hPa East 0.9 km/h 7.9 km/h 67.8% 0.0 mm 242 W/m2
12:24 17.6 °C 11.4 °C 1024.7 hPa SSE 0.3 km/h 7.9 km/h 66.6% 0.0 mm 251 W/m2
12:29 17.8 °C 11.7 °C 1025.1 hPa ENE 0.7 km/h 7.9 km/h 67.6% 0.0 mm 261 W/m2
12:34 17.7 °C 11.5 °C 1024.7 hPa Calm     67.1% 0.0 mm 271 W/m2
12:39 17.7 °C 11.4 °C 1024.7 hPa ESE 1.4 km/h 7.9 km/h 66.5% 0.0 mm 281 W/m2
12:44 17.2 °C 11.3 °C 1024.4 hPa NNE 1.7 km/h 7.9 km/h 68.4% 0.0 mm 289 W/m2
12:49 16.7 °C 11.1 °C 1024.4 hPa SSE 0.5 km/h 7.9 km/h 69.2% 0.0 mm 300 W/m2
12:54 16.8 °C 11 °C 1024.4 hPa East 0.3 km/h 7.9 km/h 68.1% 0.0 mm 313 W/m2
12:59 17 °C 10.9 °C 1024.4 hPa SE 0.9 km/h 7.9 km/h 67.2% 0.0 mm 323 W/m2
13:04 17.8 °C 11.5 °C 1024.0 hPa Calm   7.9 km/h 66.8% 0.0 mm 332 W/m2
13:09 18.3 °C 11.7 °C 1024.0 hPa SSE 1.4 km/h 7.9 km/h 65.4% 0.0 mm 349 W/m2
13:14 18.3 °C 12 °C 1024.0 hPa ESE 0.7 km/h 7.9 km/h 66.6% 0.0 mm 356 W/m2
13:19 18.2 °C 11.7 °C 1024.0 hPa SE 0.6 km/h 7.9 km/h 65.8% 0.0 mm 363 W/m2
13:24 18.1 °C 11.8 °C 1023.7 hPa ENE 0.8 km/h 7.9 km/h 66.6% 0.0 mm 366 W/m2
13:29 17.9 °C 11.3 °C 1023.7 hPa NE 0.3 km/h 7.9 km/h 65.2% 0.0 mm 361 W/m2
13:34 17.9 °C 11.6 °C 1023.7 hPa ENE 0.4 km/h 7.9 km/h 66.3% 0.0 mm 369 W/m2
13:39 17.9 °C 11.1 °C 1023.4 hPa ESE 1 km/h 7.9 km/h 64.4% 0.0 mm 391 W/m2
13:44 18 °C 11 °C 1023.4 hPa SE 0.2 km/h 7.9 km/h 63.6% 0.0 mm 392 W/m2
13:49 18.1 °C 11.3 °C 1023.4 hPa NE 0.8 km/h 7.9 km/h 64.6% 0.0 mm 388 W/m2
13:54 18 °C 11.5 °C 1023.4 hPa ENE 0.3 km/h 7.9 km/h 65.6% 0.0 mm 392 W/m2
13:59 17.9 °C 11 °C 1023.4 hPa ENE 0.3 km/h 7.9 km/h 63.8% 0.0 mm 394 W/m2
14:04 18.5 °C 11.2 °C 1023.0 hPa Calm   7.9 km/h 62.6% 0.0 mm 396 W/m2
14:09 19.1 °C 11.6 °C 1023.0 hPa SE 2.1 km/h 7.9 km/h 61.9% 0.0 mm 404 W/m2
14:14 19.1 °C 11.6 °C 1022.7 hPa SE 0.1 km/h 7.9 km/h 62% 0.0 mm 399 W/m2
14:19 18.9 °C 11.8 °C 1022.7 hPa North 0.5 km/h 4 km/h 63.2% 0.0 mm 405 W/m2
14:24 18.3 °C 11.6 °C 1022.7 hPa ENE 0.1 km/h 7.9 km/h 64.9% 0.0 mm 395 W/m2
14:29 17.7 °C 11 °C 1022.7 hPa NE 0.6 km/h 7.9 km/h 64.9% 0.0 mm 403 W/m2
14:34 17.7 °C 11.4 °C 1022.4 hPa NE 1.9 km/h 12.2 km/h 66.4% 0.0 mm 402 W/m2
14:39 17.7 °C 11.2 °C 1022.4 hPa Calm   7.9 km/h 65.8% 0.0 mm 402 W/m2
14:49 17.8 °C 11.4 °C 1022.4 hPa NNW 0.4 km/h 4 km/h 66.1% 0.0 mm 404 W/m2
14:54 17.9 °C 11.1 °C 1022.4 hPa SSE 0.4 km/h 12.2 km/h 64.2% 0.0 mm 402 W/m2
14:59 18.1 °C 10.9 °C 1022.4 hPa Calm   12.2 km/h 63% 0.0 mm 400 W/m2
15:04 18.7 °C 11.4 °C 1022.0 hPa SSE 1 km/h 7.9 km/h 62.8% 0.0 mm 399 W/m2
15:09 19.4 °C 11.9 °C 1022.0 hPa SSE 1 km/h 7.9 km/h 62.2% 0.0 mm 396 W/m2
15:14 19.4 °C 12.1 °C 1022.0 hPa SSE 2.7 km/h 12.2 km/h 62.9% 0.0 mm 393 W/m2
15:19 19.4 °C 12.2 °C 1022.0 hPa Calm   4 km/h 63% 0.0 mm 387 W/m2
15:24 19.7 °C 12.3 °C 1022.0 hPa SSE 1 km/h 7.9 km/h 62.2% 0.0 mm 386 W/m2
15:29 20 °C 12.5 °C 1021.7 hPa Calm   7.9 km/h 62% 0.0 mm 383 W/m2
15:34 20 °C 12.6 °C 1021.7 hPa SE 0.3 km/h 7.9 km/h 62.6% 0.0 mm 381 W/m2
15:38 19.9 °C 12.6 °C 1021.7 hPa Calm   7.9 km/h 62.9% 0.0 mm 376 W/m2
15:49 19.3 °C 11.9 °C 1021.3 hPa Calm     62.3% 0.0 mm 369 W/m2
15:54 19.4 °C 12.1 °C 1021.7 hPa Calm   4 km/h 62.7% 0.0 mm 365 W/m2
15:59 19.6 °C 12.4 °C 1021.3 hPa Calm   7.9 km/h 63% 0.0 mm 360 W/m2
16:04 19.7 °C 12.4 °C 1021.3 hPa South 0.7 km/h 7.9 km/h 62.8% 0.0 mm 357 W/m2
16:09 19.7 °C 12.4 °C 1021.7 hPa SSE 0.9 km/h 12.2 km/h 62.8% 0.0 mm 348 W/m2
16:14 19.8 °C 11.9 °C 1021.7 hPa Calm   12.2 km/h 60.8% 0.0 mm 340 W/m2
16:19 20 °C 12.2 °C 1021.7 hPa SSE 0.2 km/h 4 km/h 60.9% 0.0 mm 146 W/m2
16:24 20.1 °C 12.6 °C 1021.3 hPa South 0.3 km/h 7.9 km/h 62% 0.0 mm 301 W/m2
16:29 20.2 °C 12.8 °C 1021.7 hPa SSE 0.7 km/h 7.9 km/h 62.7% 0.0 mm 316 W/m2
16:34 20.1 °C 12.8 °C 1021.3 hPa Calm     63% 0.0 mm 313 W/m2
16:39 19.9 °C 12.8 °C 1021.3 hPa SE 0.2 km/h 4 km/h 63.7% 0.0 mm 307 W/m2
16:44 19.7 °C 12.7 °C 1021.3 hPa Calm   4 km/h 63.9% 0.0 mm 299 W/m2
16:48 19.6 °C 12.3 °C 1021.3 hPa Calm     63% 0.0 mm 139 W/m2
16:54 19.5 °C 12.8 °C 1021.3 hPa Calm     65.1% 0.0 mm 85 W/m2
16:59 19.3 °C 12.9 °C 1021.3 hPa Calm     66.3% 0.0 mm 57 W/m2
17:04 18.9 °C 12.8 °C 1021.3 hPa Calm     67.5% 0.0 mm 55 W/m2
17:09 17.9 °C 11.9 °C 1021.0 hPa Calm     68.3% 0.0 mm 52 W/m2
17:14 17.9 °C 12 °C 1021.3 hPa Calm     68.4% 0.0 mm 49 W/m2
17:19 17.8 °C 12 °C 1021.0 hPa Calm     69% 0.0 mm 46 W/m2
17:24 17.6 °C 12.1 °C 1021.0 hPa Calm     70.2% 0.0 mm 44 W/m2
17:29 16.8 °C 11.5 °C 1021.0 hPa Calm     71% 0.0 mm 42 W/m2
17:34 16.8 °C 11.5 °C 1021.0 hPa Calm     71% 0.0 mm 40 W/m2
17:39 16.7 °C 11.6 °C 1021.0 hPa Calm     72% 0.0 mm 37 W/m2
17:44 16.6 °C 11.8 °C 1021.0 hPa Calm     73.6% 0.0 mm 35 W/m2
17:49 16.1 °C 11.7 °C 1021.0 hPa Calm     75% 0.0 mm 33 W/m2
17:54 16.1 °C 11.7 °C 1021.0 hPa Calm     75% 0.0 mm 30 W/m2
17:59 16.1 °C 11.8 °C 1021.0 hPa Calm     75.9% 0.0 mm 28 W/m2
18:04 16 °C 11.6 °C 1021.0 hPa Calm     75.1% 0.0 mm 25 W/m2
18:09 15.7 °C 11.5 °C 1021.0 hPa Calm     76% 0.0 mm 23 W/m2
18:14 15.6 °C 11.4 °C 1021.3 hPa Calm     76% 0.0 mm 20 W/m2
18:19 15.6 °C 11.5 °C 1021.3 hPa Calm     76.6% 0.0 mm 17 W/m2
18:24 15.6 °C 11.6 °C 1021.0 hPa Calm     77% 0.0 mm 13 W/m2
18:29 15.2 °C 11.1 °C 1021.0 hPa Calm     76.3% 0.0 mm 10 W/m2
18:34 15.2 °C 11.2 °C 1021.0 hPa Calm     77% 0.0 mm 7 W/m2
18:39 15.1 °C 11.3 °C 1021.3 hPa Calm     78% 0.0 mm 4 W/m2
18:44 15.1 °C 11.2 °C 1021.3 hPa Calm     77.4% 0.0 mm 0 W/m2
18:49 14.9 °C 10.9 °C 1021.3 hPa Calm     77% 0.0 mm 0 W/m2
18:54 14.9 °C 10.9 °C 1021.3 hPa Calm     77% 0.0 mm 0 W/m2
18:59 14.9 °C 10.9 °C 1021.3 hPa Calm     77% 0.0 mm 0 W/m2
19:04 14.9 °C 11 °C 1021.3 hPa Calm     77.4% 0.0 mm 0 W/m2
19:09 14.9 °C 11 °C 1021.3 hPa Calm     77.1% 0.0 mm 0 W/m2
19:14 14.9 °C 11.1 °C 1021.3 hPa Calm     77.9% 0.0 mm 0 W/m2
19:19 14.9 °C 11.1 °C 1021.3 hPa Calm     78% 0.0 mm 0 W/m2
19:24 14.9 °C 11.1 °C 1021.3 hPa Calm     78% 0.0 mm 0 W/m2
19:29 14.7 °C 10.9 °C 1021.3 hPa Calm     78% 0.0 mm 0 W/m2
19:34 14.6 °C 10.8 °C 1021.3 hPa Calm     78% 0.0 mm 0 W/m2
19:39 14.6 °C 10.7 °C 1021.3 hPa Calm     77.6% 0.0 mm 0 W/m2
19:44 14.6 °C 10.5 °C 1021.7 hPa Calm     76.6% 0.0 mm 0 W/m2
19:49 15 °C 10.7 °C 1021.7 hPa Calm   4 km/h 76% 0.0 mm 0 W/m2
19:54 14.9 °C 11 °C 1021.3 hPa Calm     77.4% 0.0 mm 0 W/m2
19:59 14.8 °C 11 °C 1021.3 hPa Calm     78% 0.0 mm 0 W/m2
20:04 14.8 °C 10.9 °C 1021.7 hPa Calm     77.8% 0.0 mm 0 W/m2
20:09 14.5 °C 10.6 °C 1021.7 hPa Calm     77.9% 0.0 mm 0 W/m2
20:14 14.4 °C 10.4 °C 1021.7 hPa Calm     77.1% 0.0 mm 0 W/m2
20:19 14.4 °C 10.4 °C 1021.3 hPa Calm     77% 0.0 mm 0 W/m2
20:24 14.4 °C 10.4 °C 1021.7 hPa Calm     77% 0.0 mm 0 W/m2
20:29 14.4 °C 10.4 °C 1021.3 hPa Calm     77.4% 0.0 mm 0 W/m2
20:34 14.4 °C 10.4 °C 1021.3 hPa Calm     77.1% 0.0 mm 0 W/m2
20:39 14.4 °C 10.3 °C 1021.7 hPa Calm     76.3% 0.0 mm 0 W/m2
20:44 14.4 °C 10.3 °C 1021.7 hPa Calm     76.4% 0.0 mm 0 W/m2
20:49 14.5 °C 10.5 °C 1021.7 hPa Calm     77% 0.0 mm 0 W/m2
20:54 14.4 °C 10.4 °C 1021.7 hPa Calm     77.1% 0.0 mm 0 W/m2
20:59 14.5 °C 10.4 °C 1021.7 hPa Calm     76.7% 0.0 mm 0 W/m2
21:04 14.5 °C 10.5 °C 1021.7 hPa Calm     77% 0.0 mm 0 W/m2
21:09 14.6 °C 10.7 °C 1021.7 hPa Calm     77.9% 0.0 mm 0 W/m2
21:14 14.5 °C 10.7 °C 1021.7 hPa Calm     77.7% 0.0 mm 0 W/m2
21:19 14.6 °C 10.6 °C 1021.7 hPa Calm     76.8% 0.0 mm 0 W/m2
21:24 14.7 °C 10.4 °C 1022.0 hPa Calm     75.9% 0.0 mm 0 W/m2
21:29 15 °C 10.6 °C 1021.7 hPa Calm     75% 0.0 mm 0 W/m2
21:34 15.2 °C 10.7 °C 1021.7 hPa Calm     74.3% 0.0 mm 0 W/m2
21:39 15.2 °C 10.4 °C 1021.7 hPa Calm     73% 0.0 mm 0 W/m2
21:44 15.3 °C 10.7 °C 1021.7 hPa Calm     74% 0.0 mm 0 W/m2
21:49 15.1 °C 10.6 °C 1021.7 hPa Calm     74.6% 0.0 mm 0 W/m2
21:54 15 °C 10.2 °C 1021.7 hPa Calm     73.1% 0.0 mm 0 W/m2
21:59 15 °C 10.1 °C 1022.0 hPa Calm     72.7% 0.0 mm 0 W/m2
22:04 15.1 °C 9.9 °C 1022.0 hPa Calm     71.2% 0.0 mm 0 W/m2
22:09 15.5 °C 10.3 °C 1022.0 hPa Calm     71.3% 0.0 mm 0 W/m2
22:14 15.5 °C 10.7 °C 1022.0 hPa Calm     73.1% 0.0 mm 0 W/m2
22:19 15.3 °C 10.9 °C 1022.0 hPa Calm     74.8% 0.0 mm 0 W/m2
22:24 15.2 °C 10.8 °C 1022.0 hPa Calm     75.1% 0.0 mm 0 W/m2
22:29 14.6 °C 10.3 °C 1022.0 hPa Calm     75.7% 0.0 mm 0 W/m2
22:34 14.3 °C 10 °C 1022.0 hPa Calm     75.6% 0.0 mm 0 W/m2
22:39 14.4 °C 9.7 °C 1022.0 hPa Calm     73.3% 0.0 mm 0 W/m2
22:44 14.5 °C 9.7 °C 1022.0 hPa Calm     72.7% 0.0 mm 0 W/m2
22:49 14.9 °C 10 °C 1022.0 hPa Calm     72.9% 0.0 mm 0 W/m2
22:54 15 °C 10.3 °C 1022.0 hPa Calm     73.7% 0.0 mm 0 W/m2
22:59 14.9 °C 10.3 °C 1022.0 hPa Calm     74% 0.0 mm 0 W/m2
23:04 14.9 °C 10.1 °C 1022.0 hPa Calm     73% 0.0 mm 0 W/m2
23:09 14.8 °C 10.1 °C 1022.0 hPa Calm     73% 0.0 mm 0 W/m2
23:14 14.8 °C 10.1 °C 1022.4 hPa Calm     73.3% 0.0 mm 0 W/m2
23:19 14.8 °C 10 °C 1022.4 hPa Calm     73% 0.0 mm 0 W/m2
23:24 14.8 °C 10 °C 1022.4 hPa Calm     73% 0.0 mm 0 W/m2
23:29 14.9 °C 10.1 °C 1022.4 hPa Calm     73% 0.0 mm 0 W/m2
23:34 15 °C 10.1 °C 1022.4 hPa Calm     72.7% 0.0 mm 0 W/m2
23:39 14.9 °C 10.3 °C 1022.4 hPa Calm     73.6% 0.0 mm 0 W/m2
23:44 14.8 °C 10.5 °C 1022.4 hPa Calm     75.3% 0.0 mm 0 W/m2
23:49 14.6 °C 10.3 °C 1022.0 hPa Calm     75.3% 0.0 mm 0 W/m2
23:54 14.3 °C 10 °C 1022.4 hPa Calm   4 km/h 75.5% 0.0 mm 0 W/m2
23:59 14.4 °C 10 °C 1022.4 hPa WSW 0.2 km/h 4 km/h 75% 0.0 mm 0 W/m2
Juneau County Weather
Compliments of Weather Underground - 2 mb